Terminal Aerodrome Forecast
Issued by NWS

Home | Current Version | Previous Version | Text Only | Print | Product List | Glossary On
Versions: 1 2 3 4 5 6 7 8 9 10 11 12 13 14 15 16 17 18
000
FTUS46 KOTX 231124
TAFPUW
TAF
KPUW 231124Z 2312/2412 16010KT P6SM VCSH BKN070
     FM231400 21010KT P6SM VCSH OVC060 WS020/23045KT
     FM231900 23020G30KT P6SM VCSH OVC060
     FM232300 24023G39KT 6SM -RA BR OVC050
     FM240600 25015G22KT P6SM SCT250=

USA.gov is the U.S. government's official web portal to all federal, state and local government web resources and services.